Terminal Aerodrome Forecast
Issued by NWS

Current Version | Previous Version | Text Only | Print | Product List | Glossary Off
Versions: 1 2 3 4 5 6 7 8 9 10 11 12 13 14 15 16 17 18 19 20 21 22 23 24

000
FTUS41 KRLX 301700
TAFCKB
TAF
KCKB 301733Z 3018/3118 30011G20KT 5SM -SHSN OVC025
     FM302300 31009G15KT P6SM -SHSN BKN030
     FM310000 31008G13KT P6SM BKN030
     FM311000 26005KT P6SM SCT030=

USA.gov is the U.S. government's official web portal to all federal, state and local government web resources and services.